createdAt,value
2022-07-27T00:00:39.743Z,24.00
2022-07-27T00:03:07.388Z,24.00
2022-07-27T00:05:34.737Z,24.20
2022-07-27T00:08:02.118Z,24.20
2022-07-27T00:10:29.447Z,23.70
2022-07-27T00:12:56.802Z,24.40
2022-07-27T00:15:23.859Z,24.40
2022-07-27T00:17:51.533Z,23.90
2022-07-27T00:20:18.775Z,24.00
2022-07-27T00:22:50.840Z,24.00
2022-07-27T00:41:51.586Z,23.70
2022-07-27T00:44:25.871Z,23.60
2022-07-27T00:50:47.094Z,24.00
2022-07-27T00:53:14.260Z,23.80
2022-07-27T00:55:41.599Z,23.60
2022-07-27T00:58:09.096Z,23.50
2022-07-27T01:00:36.782Z,23.50
2022-07-27T01:03:09.121Z,23.70
2022-07-27T01:05:37.936Z,23.90
2022-07-27T01:08:12.550Z,24.00
2022-07-27T01:10:39.756Z,24.50
2022-07-27T01:13:06.574Z,24.60
2022-07-27T01:15:40.490Z,24.80
2022-07-27T01:18:10.963Z,24.50
2022-07-27T01:20:37.747Z,24.60
2022-07-27T01:23:04.576Z,24.40
2022-07-27T01:25:31.283Z,24.70
2022-07-27T01:27:57.982Z,24.40
2022-07-27T01:30:27.828Z,24.60
2022-07-27T01:33:01.328Z,24.60
2022-07-27T01:35:28.284Z,24.60
2022-07-27T01:37:55.210Z,24.00
2022-07-27T01:40:22.950Z,24.20
2022-07-27T01:42:49.858Z,24.40
2022-07-27T01:49:04.927Z,24.30
2022-07-27T01:51:31.905Z,23.40
2022-07-27T01:53:58.760Z,23.20
2022-07-27T01:56:25.571Z,23.20
2022-07-27T01:58:52.575Z,23.20
2022-07-27T02:03:46.574Z,23.20
2022-07-27T02:06:13.255Z,23.30
2022-07-27T02:08:40.202Z,23.80
2022-07-27T02:11:25.410Z,24.10
2022-07-27T02:13:52.157Z,24.40
2022-07-27T02:16:19.438Z,24.10
2022-07-27T02:18:48.639Z,24.10
2022-07-27T02:21:15.951Z,24.30
2022-07-27T02:23:44.574Z,23.90
2022-07-27T02:26:11.506Z,24.20
2022-07-27T02:28:38.446Z,24.40
2022-07-27T02:31:05.348Z,24.20
2022-07-27T02:33:32.216Z,24.40
2022-07-27T02:35:59.131Z,24.10
2022-07-27T02:38:26.086Z,24.00
2022-07-27T02:41:01.767Z,24.20
2022-07-27T02:43:58.394Z,24.00
2022-07-27T02:50:38.661Z,23.20
2022-07-27T02:53:05.394Z,23.70
2022-07-27T02:55:50.572Z,23.80
2022-07-27T02:58:17.333Z,24.00
2022-07-27T03:00:58.633Z,23.10
2022-07-27T03:03:36.763Z,23.00
2022-07-27T03:06:07.911Z,23.50
2022-07-27T03:08:35.340Z,23.50
2022-07-27T03:11:02.372Z,24.00
2022-07-27T03:13:29.112Z,24.20
2022-07-27T03:15:56.444Z,24.20
2022-07-27T03:18:23.305Z,24.30
2022-07-27T03:20:50.188Z,24.40
2022-07-27T03:23:20.635Z,24.40
2022-07-27T03:25:47.308Z,24.10
2022-07-27T03:28:14.486Z,24.20
2022-07-27T03:30:41.578Z,24.00
2022-07-27T03:33:11.224Z,24.10
2022-07-27T03:35:38.028Z,23.50
2022-07-27T03:38:04.850Z,23.80
2022-07-27T03:40:34.564Z,23.40
2022-07-27T03:43:01.396Z,23.60
2022-07-27T03:45:28.331Z,24.10
2022-07-27T03:51:42.888Z,22.60
2022-07-27T03:54:10.072Z,21.90
2022-07-27T03:56:36.816Z,21.60
2022-07-27T03:59:03.618Z,21.80
2022-07-27T04:01:30.757Z,22.80
2022-07-27T04:04:17.123Z,23.10
2022-07-27T04:06:45.181Z,23.20
2022-07-27T04:09:14.001Z,22.90
2022-07-27T04:11:51.054Z,23.10
2022-07-27T04:14:20.360Z,23.00
2022-07-27T04:16:47.540Z,22.90
2022-07-27T04:19:14.807Z,23.20
2022-07-27T04:21:41.942Z,23.10
2022-07-27T04:24:08.981Z,22.40
2022-07-27T04:26:36.564Z,22.40
2022-07-27T04:29:03.811Z,22.60
2022-07-27T04:31:31.028Z,22.10
2022-07-27T04:33:57.772Z,21.60
2022-07-27T04:36:24.686Z,21.50
2022-07-27T04:38:51.445Z,21.40
2022-07-27T04:41:18.217Z,21.60
2022-07-27T04:43:45.098Z,21.70
2022-07-27T04:50:06.060Z,22.10
2022-07-27T04:52:32.988Z,21.90
2022-07-27T04:54:59.747Z,21.90
2022-07-27T04:58:23.487Z,22.10
2022-07-27T05:00:50.595Z,21.90
2022-07-27T05:03:17.384Z,21.50
2022-07-27T05:06:23.280Z,21.40
2022-07-27T05:08:50.060Z,21.40
2022-07-27T05:11:16.853Z,21.30
2022-07-27T05:13:43.671Z,22.00
2022-07-27T05:16:10.844Z,22.20
2022-07-27T05:18:38.432Z,22.70
2022-07-27T05:21:25.198Z,22.70
2022-07-27T05:24:10.998Z,22.70
2022-07-27T05:26:56.460Z,22.70
2022-07-27T05:29:42.170Z,22.40
2022-07-27T05:32:27.490Z,22.50
2022-07-27T05:35:12.645Z,22.70
2022-07-27T05:37:59.014Z,22.90
2022-07-27T05:40:45.601Z,23.10
2022-07-27T05:43:31.079Z,23.10
2022-07-27T05:46:17.455Z,23.30
2022-07-27T05:49:03.028Z,23.30
2022-07-27T05:51:49.070Z,23.20
2022-07-27T05:54:34.328Z,23.00
2022-07-27T05:57:19.734Z,22.40
2022-07-27T06:00:06.323Z,21.80
2022-07-27T06:02:51.855Z,21.40
2022-07-27T06:05:37.146Z,21.20
2022-07-27T06:08:22.361Z,21.00
2022-07-27T06:11:07.615Z,20.80
2022-07-27T06:13:53.135Z,20.70
2022-07-27T06:16:39.187Z,20.60
2022-07-27T06:19:24.828Z,20.50
2022-07-27T06:22:22.962Z,20.50
2022-07-27T06:25:09.038Z,20.50
2022-07-27T06:27:55.761Z,20.40
2022-07-27T06:30:43.389Z,20.40
2022-07-27T06:33:52.295Z,20.20
2022-07-27T06:36:39.800Z,20.30
2022-07-27T06:39:25.201Z,20.20
2022-07-27T06:42:13.422Z,20.20
2022-07-27T06:44:59.000Z,20.40
2022-07-27T06:47:48.967Z,20.30
2022-07-27T06:53:21.941Z,21.60
2022-07-27T06:56:08.543Z,22.90
2022-07-27T06:58:54.220Z,23.00
2022-07-27T07:01:39.737Z,22.90
2022-07-27T07:04:25.342Z,22.10
2022-07-27T07:07:26.210Z,21.70
2022-07-27T07:10:11.619Z,21.30
2022-07-27T07:13:03.339Z,21.00
2022-07-27T07:15:48.644Z,20.80
2022-07-27T07:18:33.852Z,20.60
2022-07-27T07:21:19.176Z,20.60
2022-07-27T07:24:04.533Z,20.60
2022-07-27T07:26:50.183Z,20.50
2022-07-27T07:29:35.379Z,20.50
2022-07-27T07:32:27.763Z,20.50
2022-07-27T07:35:17.076Z,20.60
2022-07-27T07:38:02.731Z,20.60
2022-07-27T07:40:48.477Z,20.70
2022-07-27T07:58:56.725Z,21.10
2022-07-27T08:01:25.039Z,21.20
2022-07-27T08:03:52.871Z,21.40
2022-07-27T08:06:19.840Z,21.60
2022-07-27T08:09:23.695Z,21.70
2022-07-27T08:11:52.635Z,21.80
2022-07-27T08:14:19.338Z,21.80
2022-07-27T08:16:48.469Z,21.80
2022-07-27T08:19:16.043Z,21.80
2022-07-27T08:21:42.914Z,21.80
2022-07-27T08:24:09.689Z,21.90
2022-07-27T08:26:36.575Z,22.00
2022-07-27T08:29:13.215Z,22.10
2022-07-27T08:31:51.136Z,22.20
2022-07-27T08:34:18.771Z,22.10
2022-07-27T08:36:45.606Z,22.00
2022-07-27T08:39:41.251Z,22.10
2022-07-27T08:42:01.657Z,22.10
2022-07-27T08:44:29.894Z,22.30
2022-07-27T08:46:57.392Z,22.30
2022-07-27T08:49:41.361Z,22.10
2022-07-27T08:52:11.169Z,22.00
2022-07-27T08:54:41.756Z,22.10
2022-07-27T08:57:09.461Z,22.20
2022-07-27T08:59:36.343Z,22.30
2022-07-27T09:02:04.630Z,22.20
2022-07-27T09:04:31.581Z,22.30
2022-07-27T09:06:58.433Z,22.20
2022-07-27T09:10:02.853Z,22.10
2022-07-27T09:12:30.376Z,22.00
2022-07-27T09:15:11.027Z,21.90
2022-07-27T09:17:54.642Z,22.10
2022-07-27T09:20:21.611Z,22.50
2022-07-27T09:22:55.252Z,23.30
2022-07-27T09:25:38.734Z,23.70
2022-07-27T09:28:10.572Z,24.50
2022-07-27T09:30:46.551Z,25.60
2022-07-27T09:33:15.244Z,26.50
2022-07-27T09:35:42.023Z,27.40
2022-07-27T09:38:18.318Z,28.30
2022-07-27T09:40:46.672Z,28.40
2022-07-27T09:46:06.530Z,27.20
2022-07-27T09:48:34.732Z,26.60
2022-07-27T09:51:32.872Z,26.10
2022-07-27T09:53:50.340Z,25.80
2022-07-27T09:56:18.057Z,25.70
2022-07-27T09:58:46.119Z,25.70
2022-07-27T10:01:15.099Z,25.60
2022-07-27T10:03:43.006Z,25.30
2022-07-27T10:06:10.463Z,25.20
2022-07-27T10:09:14.979Z,25.10
2022-07-27T10:11:42.070Z,25.00
2022-07-27T10:14:09.051Z,25.00
2022-07-27T10:16:37.592Z,25.00
2022-07-27T10:19:40.185Z,24.80
2022-07-27T10:22:07.053Z,24.90
2022-07-27T10:24:37.006Z,24.80
2022-07-27T10:27:32.976Z,24.70
2022-07-27T10:29:59.853Z,24.60
2022-07-27T10:32:33.490Z,24.60
2022-07-27T10:35:01.366Z,24.70
2022-07-27T10:37:32.022Z,24.70
2022-07-27T10:40:18.852Z,24.80
2022-07-27T10:42:51.899Z,24.70
2022-07-27T10:45:21.032Z,24.60
2022-07-27T10:47:49.099Z,24.80
2022-07-27T10:50:15.831Z,24.90
2022-07-27T10:52:43.562Z,25.10
2022-07-27T10:55:29.178Z,25.90
2022-07-27T10:58:03.150Z,26.80
2022-07-27T11:00:53.508Z,26.60
2022-07-27T11:03:33.531Z,27.10
2022-07-27T11:12:26.832Z,28.90
2022-07-27T11:14:54.918Z,28.90
2022-07-27T11:17:56.223Z,28.80
2022-07-27T11:20:13.328Z,28.40
2022-07-27T11:25:27.957Z,27.60
2022-07-27T11:27:54.903Z,27.90
2022-07-27T11:30:25.524Z,28.80
2022-07-27T11:32:52.633Z,29.50
2022-07-27T11:35:20.391Z,29.20
2022-07-27T11:38:00.680Z,28.90
2022-07-27T11:40:56.203Z,28.30
2022-07-27T11:43:33.882Z,27.20
2022-07-27T11:46:19.515Z,26.60
2022-07-27T11:49:05.932Z,26.70
2022-07-27T11:51:34.484Z,26.90
2022-07-27T11:54:02.294Z,27.00
2022-07-27T11:56:32.184Z,27.30
2022-07-27T11:59:03.334Z,27.60
2022-07-27T12:01:31.353Z,27.80
2022-07-27T12:04:05.627Z,28.10
2022-07-27T12:06:34.078Z,28.10
2022-07-27T12:09:39.126Z,27.80
2022-07-27T12:12:15.724Z,27.50
2022-07-27T12:14:51.238Z,27.30
2022-07-27T12:17:30.414Z,26.60
2022-07-27T12:20:00.236Z,26.70
2022-07-27T12:22:36.655Z,27.10
2022-07-27T12:25:10.003Z,27.80
2022-07-27T12:28:01.985Z,28.20
2022-07-27T12:30:32.710Z,28.20
2022-07-27T12:33:00.000Z,28.10
2022-07-27T12:35:32.770Z,28.10
2022-07-27T12:38:04.443Z,28.40
2022-07-27T12:40:32.063Z,28.60
2022-07-27T12:43:03.150Z,28.90
2022-07-27T12:45:34.346Z,29.20
2022-07-27T12:48:14.409Z,29.40
2022-07-27T12:50:42.044Z,29.80
2022-07-27T12:53:09.608Z,30.00
2022-07-27T12:55:36.664Z,29.80
2022-07-27T12:58:04.075Z,29.50
2022-07-27T13:00:33.848Z,29.10
2022-07-27T13:03:02.191Z,28.70
2022-07-27T13:05:30.033Z,28.20
2022-07-27T13:08:01.510Z,28.20
2022-07-27T13:11:09.164Z,28.10
2022-07-27T13:13:37.128Z,28.20
2022-07-27T13:16:04.463Z,28.30
2022-07-27T13:18:32.346Z,28.30
2022-07-27T13:21:00.328Z,28.80
2022-07-27T13:23:31.049Z,29.70
2022-07-27T13:25:58.629Z,30.60
2022-07-27T13:28:25.979Z,30.90
2022-07-27T13:30:53.358Z,30.70
2022-07-27T13:33:23.151Z,30.60
2022-07-27T13:35:51.627Z,30.90
2022-07-27T13:38:29.288Z,31.30
2022-07-27T13:40:56.625Z,31.50
2022-07-27T13:43:24.368Z,31.60
2022-07-27T13:45:52.020Z,31.80
2022-07-27T13:48:20.105Z,31.70
2022-07-27T13:50:50.484Z,31.30
2022-07-27T13:53:18.424Z,31.00
2022-07-27T13:55:45.933Z,30.80
2022-07-27T13:58:13.880Z,30.60
2022-07-27T14:00:41.936Z,30.30
2022-07-27T14:03:11.320Z,29.70
2022-07-27T14:05:49.616Z,28.90
2022-07-27T14:08:18.120Z,28.70
2022-07-27T14:15:14.321Z,27.90
2022-07-27T14:17:42.588Z,27.70
2022-07-27T14:20:11.652Z,27.60
2022-07-27T14:22:41.291Z,27.50
2022-07-27T14:25:10.950Z,27.70
2022-07-27T14:27:40.127Z,28.10
2022-07-27T14:30:09.856Z,28.20
2022-07-27T14:32:38.804Z,28.70
2022-07-27T14:35:08.113Z,29.10
2022-07-27T14:37:37.642Z,29.60
2022-07-27T14:40:07.013Z,29.80
2022-07-27T14:42:35.742Z,30.10
2022-07-27T14:45:05.587Z,30.40
2022-07-27T14:47:38.880Z,30.10
2022-07-27T14:50:42.725Z,29.80
2022-07-27T15:01:23.553Z,29.70
2022-07-27T15:03:50.409Z,29.80
2022-07-27T15:06:17.397Z,29.60
2022-07-27T15:08:44.327Z,29.70
2022-07-27T15:15:29.221Z,30.10
2022-07-27T15:17:55.980Z,30.30
2022-07-27T15:20:23.357Z,30.60
2022-07-27T15:22:50.882Z,30.70
2022-07-27T15:25:18.087Z,30.60
2022-07-27T15:27:45.345Z,30.70
2022-07-27T15:30:12.298Z,30.10
2022-07-27T15:32:39.128Z,30.10
2022-07-27T15:35:06.074Z,30.30
2022-07-27T15:37:32.906Z,30.90
2022-07-27T15:40:20.334Z,31.40
2022-07-27T15:42:47.327Z,31.60
2022-07-27T15:45:14.069Z,31.90
2022-07-27T15:47:40.840Z,32.20
2022-07-27T15:50:08.273Z,32.30
2022-07-27T15:52:36.250Z,32.50
2022-07-27T15:55:03.225Z,32.40
2022-07-27T15:57:30.102Z,32.40
2022-07-27T15:59:56.852Z,32.20
2022-07-27T16:02:26.507Z,32.40
2022-07-27T16:04:54.578Z,32.50
2022-07-27T16:07:21.563Z,32.50
2022-07-27T16:09:48.306Z,32.50
2022-07-27T16:12:52.770Z,32.70
2022-07-27T16:15:19.656Z,32.90
2022-07-27T16:18:01.862Z,32.70
2022-07-27T16:20:29.578Z,32.60
2022-07-27T16:22:57.104Z,32.10
2022-07-27T16:25:40.179Z,32.00
2022-07-27T16:28:11.256Z,32.00
2022-07-27T16:30:38.426Z,32.10
2022-07-27T16:33:05.164Z,32.30
2022-07-27T16:35:32.218Z,32.40
2022-07-27T16:37:59.459Z,31.80
2022-07-27T16:40:26.820Z,31.70
2022-07-27T16:42:54.406Z,31.70
2022-07-27T16:45:21.867Z,31.80
2022-07-27T16:47:49.195Z,31.80
2022-07-27T16:50:16.458Z,31.70
2022-07-27T16:52:43.731Z,31.50
2022-07-27T16:55:11.921Z,31.60
2022-07-27T16:57:40.180Z,31.80
2022-07-27T17:00:08.904Z,31.60
2022-07-27T17:02:36.190Z,31.30
2022-07-27T17:05:05.125Z,31.40
2022-07-27T17:07:31.998Z,31.40
2022-07-27T17:09:58.928Z,31.40
2022-07-27T17:13:03.175Z,31.30
2022-07-27T17:15:31.559Z,31.40
2022-07-27T17:17:59.638Z,31.20
2022-07-27T17:20:28.124Z,31.30
2022-07-27T17:23:02.657Z,31.50
2022-07-27T17:25:29.512Z,31.40
2022-07-27T17:27:56.520Z,31.10
2022-07-27T17:30:24.112Z,30.50
2022-07-27T17:32:50.936Z,30.10
2022-07-27T17:35:17.621Z,30.00
2022-07-27T17:38:05.089Z,29.80
2022-07-27T17:40:32.342Z,29.60
2022-07-27T17:42:59.072Z,29.30
2022-07-27T17:45:25.855Z,29.30
2022-07-27T17:47:52.733Z,29.10
2022-07-27T17:50:19.646Z,28.90
2022-07-27T17:52:46.431Z,28.70
2022-07-27T17:55:13.250Z,28.40
2022-07-27T17:57:40.061Z,28.10
2022-07-27T18:00:07.640Z,28.10
2022-07-27T18:02:36.924Z,28.10
2022-07-27T18:05:03.841Z,28.10
2022-07-27T18:07:30.764Z,28.20
2022-07-27T18:10:06.305Z,28.20
2022-07-27T18:16:52.025Z,28.00
2022-07-27T18:19:19.180Z,27.80
2022-07-27T18:21:45.961Z,27.60
2022-07-27T18:24:13.029Z,27.60
2022-07-27T18:26:40.107Z,27.50
2022-07-27T18:29:07.332Z,27.40
2022-07-27T18:34:02.014Z,26.90
2022-07-27T18:36:29.406Z,26.70
2022-07-27T18:38:57.480Z,26.40
2022-07-27T18:41:24.979Z,26.80
2022-07-27T18:43:51.869Z,26.80
2022-07-27T18:46:20.171Z,26.80
2022-07-27T18:48:47.935Z,26.70
2022-07-27T18:51:15.207Z,26.60
2022-07-27T18:53:44.088Z,26.50
2022-07-27T18:56:10.942Z,26.50
2022-07-27T18:58:37.776Z,26.30
2022-07-27T19:01:04.708Z,26.30
2022-07-27T19:03:31.660Z,26.20
2022-07-27T19:05:59.124Z,26.10
2022-07-27T19:08:26.071Z,26.00
2022-07-27T19:10:53.164Z,26.00
2022-07-27T19:13:57.657Z,25.90
2022-07-27T19:16:25.023Z,25.80
2022-07-27T19:18:52.840Z,25.90
2022-07-27T19:21:20.021Z,25.90
2022-07-27T19:23:46.828Z,25.90
2022-07-27T19:26:13.923Z,25.90
2022-07-27T19:28:41.726Z,25.90
2022-07-27T19:31:22.699Z,25.80
2022-07-27T19:33:52.259Z,25.80
2022-07-27T19:36:19.545Z,25.80
2022-07-27T19:38:46.321Z,25.70
2022-07-27T19:41:13.332Z,25.70
2022-07-27T19:43:40.192Z,25.70
2022-07-27T19:46:07.152Z,25.70
2022-07-27T19:48:34.027Z,25.60
2022-07-27T19:51:04.862Z,25.60
2022-07-27T19:53:35.679Z,25.50
2022-07-27T19:56:02.963Z,25.50
2022-07-27T19:58:29.870Z,25.40
2022-07-27T20:00:56.781Z,25.50
2022-07-27T20:03:23.869Z,25.50
2022-07-27T20:05:50.755Z,25.50
2022-07-27T20:08:17.756Z,25.50
2022-07-27T20:10:45.183Z,25.50
2022-07-27T20:16:42.649Z,25.40
2022-07-27T20:19:09.527Z,25.30
2022-07-27T20:21:36.992Z,25.20
2022-07-27T20:24:04.370Z,25.30
2022-07-27T20:26:31.943Z,25.30
2022-07-27T20:28:59.835Z,25.20
2022-07-27T20:31:32.668Z,24.70
2022-07-27T20:33:59.527Z,24.50
2022-07-27T20:36:26.241Z,24.20
2022-07-27T20:38:53.228Z,24.00
2022-07-27T20:41:20.023Z,24.00
2022-07-27T20:43:47.350Z,23.90
2022-07-27T20:46:15.764Z,23.60
2022-07-27T20:48:42.826Z,23.60
2022-07-27T20:51:10.891Z,23.50
2022-07-27T20:53:39.478Z,23.40
2022-07-27T20:56:06.447Z,23.40
2022-07-27T20:58:33.241Z,23.40
2022-07-27T21:01:00.540Z,23.30
2022-07-27T21:03:27.369Z,23.10
2022-07-27T21:05:54.624Z,23.50
2022-07-27T21:08:21.463Z,23.90
2022-07-27T21:10:48.184Z,23.90
2022-07-27T21:13:15.158Z,24.40
2022-07-27T21:16:19.756Z,24.10
2022-07-27T21:18:46.568Z,23.90
2022-07-27T21:21:13.268Z,23.80
2022-07-27T21:23:58.985Z,24.30
2022-07-27T21:26:25.787Z,24.10
2022-07-27T21:28:52.897Z,23.80
2022-07-27T21:31:19.980Z,23.80
2022-07-27T21:33:47.698Z,23.40
2022-07-27T21:36:14.496Z,23.20
2022-07-27T21:38:41.379Z,23.20
2022-07-27T21:41:08.195Z,24.00
2022-07-27T21:43:34.979Z,24.40
2022-07-27T21:46:02.090Z,24.20
2022-07-27T21:48:28.843Z,23.80
2022-07-27T21:50:55.708Z,23.70
2022-07-27T21:53:22.548Z,24.00
2022-07-27T21:55:49.531Z,24.10
2022-07-27T21:58:16.562Z,24.20
2022-07-27T22:00:43.667Z,24.20
2022-07-27T22:03:10.616Z,23.50
2022-07-27T22:05:37.600Z,23.30
2022-07-27T22:08:08.171Z,23.10
2022-07-27T22:10:35.225Z,22.90
2022-07-27T22:13:02.086Z,22.80
2022-07-27T22:16:06.544Z,22.50
2022-07-27T22:18:33.389Z,22.30
2022-07-27T22:21:03.341Z,22.10
2022-07-27T22:23:30.231Z,21.90
2022-07-27T22:25:58.046Z,21.90
2022-07-27T22:28:26.211Z,22.00
2022-07-27T22:31:20.463Z,21.90
2022-07-27T22:33:40.643Z,22.00
2022-07-27T22:36:12.000Z,21.90
2022-07-27T22:38:39.287Z,21.70
2022-07-27T22:41:06.072Z,21.80
2022-07-27T22:43:32.930Z,21.90
2022-07-27T22:46:00.254Z,21.80
2022-07-27T22:48:27.322Z,21.70
2022-07-27T22:50:54.180Z,21.70
2022-07-27T22:53:21.041Z,21.70
2022-07-27T22:55:47.763Z,21.60
2022-07-27T22:58:17.942Z,21.50
2022-07-27T23:00:45.086Z,21.40
2022-07-27T23:03:12.681Z,21.40
2022-07-27T23:05:39.546Z,21.30
2022-07-27T23:08:06.307Z,21.20
2022-07-27T23:10:48.439Z,21.20
2022-07-27T23:13:16.152Z,21.30
2022-07-27T23:16:20.444Z,21.50
2022-07-27T23:18:47.354Z,21.50
2022-07-27T23:21:14.312Z,21.40
2022-07-27T23:23:51.051Z,21.30
2022-07-27T23:26:26.104Z,21.30
2022-07-27T23:28:53.642Z,21.10
2022-07-27T23:31:23.539Z,21.20
2022-07-27T23:33:50.308Z,21.10
2022-07-27T23:36:17.283Z,21.30
2022-07-27T23:38:44.052Z,21.20
2022-07-27T23:41:10.876Z,21.10
2022-07-27T23:55:02.695Z,21.00
2022-07-27T23:57:29.437Z,20.90
2022-07-27T23:59:56.580Z,20.90
